createdAt,value
2018-05-08T00:00:54.908Z,77.30
2018-05-08T00:02:55.845Z,77.30
2018-05-08T00:04:56.797Z,77.20
2018-05-08T00:06:58.137Z,77.50
2018-05-08T00:08:59.212Z,77.50
2018-05-08T00:11:01.175Z,77.40
2018-05-08T00:13:02.166Z,77.30
2018-05-08T00:15:03.484Z,77.10
2018-05-08T00:17:04.527Z,77.10
2018-05-08T00:19:06.359Z,77.30
2018-05-08T00:21:07.415Z,77.40
2018-05-08T00:23:09.703Z,77.60
2018-05-08T00:25:11.147Z,77.80
2018-05-08T00:27:12.482Z,77.90
2018-05-08T00:29:13.443Z,77.90
2018-05-08T00:31:14.398Z,78.00
2018-05-08T00:33:15.889Z,78.20
2018-05-08T00:35:17.210Z,78.30
2018-05-08T00:37:18.175Z,78.30
2018-05-08T00:39:19.223Z,78.30
2018-05-08T00:41:20.549Z,78.20
2018-05-08T00:43:21.729Z,78.20
2018-05-08T00:45:22.776Z,78.00
2018-05-08T00:47:23.759Z,78.10
2018-05-08T00:49:24.859Z,78.20
2018-05-08T00:51:26.246Z,78.40
2018-05-08T00:53:27.213Z,78.30
2018-05-08T00:55:28.174Z,78.30
2018-05-08T00:57:29.132Z,78.50
2018-05-08T00:59:30.111Z,78.30
2018-05-08T01:01:31.091Z,77.80
2018-05-08T01:03:32.040Z,78.00
2018-05-08T01:05:32.993Z,78.20
2018-05-08T01:07:34.335Z,78.50
2018-05-08T01:09:35.270Z,78.40
2018-05-08T01:11:36.282Z,78.50
2018-05-08T01:13:37.554Z,78.50
2018-05-08T01:15:38.878Z,78.30
2018-05-08T01:17:39.822Z,78.40
2018-05-08T01:19:41.040Z,78.10
2018-05-08T01:21:42.005Z,78.00
2018-05-08T01:23:43.315Z,78.20
2018-05-08T01:25:44.654Z,78.30
2018-05-08T01:27:45.597Z,78.30
2018-05-08T01:29:46.561Z,78.50
2018-05-08T01:31:47.885Z,78.90
2018-05-08T01:33:48.836Z,78.90
2018-05-08T01:35:50.157Z,79.20
2018-05-08T01:37:51.302Z,79.10
2018-05-08T01:39:52.244Z,79.00
2018-05-08T01:41:53.570Z,78.90
2018-05-08T01:43:54.547Z,78.90
2018-05-08T01:45:55.503Z,79.10
2018-05-08T01:47:56.449Z,79.20
2018-05-08T01:49:57.390Z,79.40
2018-05-08T01:51:58.327Z,79.40
2018-05-08T01:53:59.705Z,79.10
2018-05-08T01:56:01.035Z,79.10
2018-05-08T01:58:01.984Z,79.10
2018-05-08T02:00:03.336Z,79.20
2018-05-08T02:02:04.661Z,79.20
2018-05-08T02:04:05.626Z,79.20
2018-05-08T02:06:06.598Z,79.30
2018-05-08T02:08:07.594Z,79.10
2018-05-08T02:10:08.587Z,79.30
2018-05-08T02:12:09.883Z,79.30
2018-05-08T02:14:10.762Z,79.30
2018-05-08T02:16:11.709Z,79.30
2018-05-08T02:18:12.675Z,79.20
2018-05-08T02:20:13.633Z,79.10
2018-05-08T02:22:14.577Z,78.90
2018-05-08T02:24:15.718Z,79.00
2018-05-08T02:26:16.666Z,79.10
2018-05-08T02:28:17.610Z,78.80
2018-05-08T02:30:18.568Z,78.60
2018-05-08T02:32:19.896Z,78.50
2018-05-08T02:34:20.835Z,78.40
2018-05-08T02:36:22.185Z,78.50
2018-05-08T02:38:23.494Z,78.50
2018-05-08T02:40:24.446Z,78.50
2018-05-08T02:42:25.395Z,78.50
2018-05-08T02:44:26.714Z,79.10
2018-05-08T02:46:27.678Z,79.10
2018-05-08T02:48:28.654Z,79.20
2018-05-08T02:50:29.600Z,78.70
2018-05-08T02:52:30.549Z,78.40
2018-05-08T02:54:31.508Z,78.50
2018-05-08T02:56:32.827Z,78.50
2018-05-08T02:58:33.782Z,78.50
2018-05-08T03:00:35.203Z,78.60
2018-05-08T03:02:36.150Z,78.50
2018-05-08T03:04:37.107Z,78.50
2018-05-08T03:06:38.591Z,78.50
2018-05-08T03:08:39.559Z,78.50
2018-05-08T03:10:40.498Z,78.50
2018-05-08T03:12:41.469Z,78.50
2018-05-08T03:14:42.407Z,78.70
2018-05-08T03:16:43.362Z,78.70
2018-05-08T03:18:44.622Z,78.90
2018-05-08T03:20:45.569Z,79.00
2018-05-08T03:22:46.514Z,79.20
2018-05-08T03:24:47.462Z,79.00
2018-05-08T03:26:48.773Z,78.60
2018-05-08T03:28:49.706Z,78.60
2018-05-08T03:30:50.666Z,78.60
2018-05-08T03:32:53.627Z,78.20
2018-05-08T03:34:54.883Z,78.10
2018-05-08T03:36:56.293Z,78.20
2018-05-08T03:38:57.243Z,78.10
2018-05-08T03:40:58.183Z,78.00
2018-05-08T03:42:59.139Z,77.80
2018-05-08T03:45:00.437Z,78.20
2018-05-08T03:47:01.365Z,78.20
2018-05-08T03:49:02.458Z,78.10
2018-05-08T03:51:04.154Z,78.00
2018-05-08T03:53:05.100Z,77.60
2018-05-08T03:55:06.064Z,77.30
2018-05-08T03:57:08.269Z,77.30
2018-05-08T03:59:09.257Z,77.30
2018-05-08T04:01:22.637Z,77.40
2018-05-08T04:03:36.158Z,77.60
2018-05-08T04:29:57.661Z,78.00
2018-05-08T04:31:58.614Z,78.40
2018-05-08T04:33:59.933Z,78.60
2018-05-08T04:36:01.013Z,78.60
2018-05-08T04:38:01.955Z,78.80
2018-05-08T04:40:03.649Z,78.80
2018-05-08T04:42:04.598Z,78.80
2018-05-08T04:44:05.529Z,78.80
2018-05-08T04:46:06.477Z,79.00
2018-05-08T04:48:07.806Z,79.40
2018-05-08T04:50:08.774Z,79.40
2018-05-08T04:52:09.705Z,79.30
2018-05-08T04:54:10.678Z,78.80
2018-05-08T04:56:11.635Z,78.80
2018-05-08T04:58:12.601Z,78.50
2018-05-08T05:00:13.937Z,78.30
2018-05-08T05:02:15.243Z,78.40
2018-05-08T05:04:16.204Z,78.40
2018-05-08T05:06:17.663Z,78.20
2018-05-08T05:08:19.347Z,78.00
2018-05-08T05:10:20.302Z,78.00
2018-05-08T05:12:22.008Z,77.90
2018-05-08T05:14:23.699Z,77.80
2018-05-08T05:16:24.646Z,77.80
2018-05-08T05:18:25.621Z,78.20
2018-05-08T05:20:26.937Z,77.40
2018-05-08T05:22:27.884Z,77.40
2018-05-08T05:24:29.700Z,76.90
2018-05-08T05:26:30.994Z,77.20
2018-05-08T05:28:32.310Z,77.00
2018-05-08T05:30:33.266Z,77.00
2018-05-08T05:32:34.604Z,77.30
2018-05-08T05:34:36.215Z,77.20
2018-05-08T05:36:37.174Z,77.20
2018-05-08T05:38:38.135Z,76.70
2018-05-08T05:40:39.459Z,76.90
2018-05-08T05:42:40.463Z,76.90
2018-05-08T05:44:41.470Z,76.70
2018-05-08T05:46:43.117Z,76.30
2018-05-08T05:48:44.045Z,76.30
2018-05-08T05:50:45.006Z,75.60
2018-05-08T05:52:45.951Z,75.20
2018-05-08T05:54:46.892Z,75.40
2018-05-08T05:56:47.922Z,75.40
2018-05-08T05:58:49.207Z,75.10
2018-05-08T06:00:50.538Z,74.30
2018-05-08T06:02:51.853Z,73.70
2018-05-08T06:04:52.803Z,73.70
2018-05-08T06:06:53.750Z,73.70
2018-05-08T06:08:55.063Z,72.60
2018-05-08T06:11:03.082Z,72.60
2018-05-08T06:13:04.090Z,72.50
2018-05-08T06:15:05.038Z,72.50
2018-05-08T06:17:05.977Z,72.00
2018-05-08T06:19:06.933Z,71.10
2018-05-08T06:21:08.239Z,70.30
2018-05-08T06:23:09.234Z,70.30
2018-05-08T06:25:10.184Z,70.30
2018-05-08T06:27:11.130Z,70.20
2018-05-08T06:29:12.081Z,70.00
2018-05-08T06:31:14.498Z,70.20
2018-05-08T06:33:15.446Z,69.80
2018-05-08T06:35:16.387Z,69.00
2018-05-08T06:37:17.781Z,68.60
2018-05-08T06:39:19.067Z,69.00
2018-05-08T06:41:20.015Z,67.90
2018-05-08T06:43:20.958Z,66.30
2018-05-08T06:45:21.902Z,66.60
2018-05-08T06:47:23.374Z,65.10
2018-05-08T06:49:24.310Z,65.00
2018-05-08T06:51:25.257Z,65.80
2018-05-08T06:53:26.574Z,65.20
2018-05-08T06:55:27.528Z,65.20
2018-05-08T06:57:28.833Z,64.90
2018-05-08T06:59:29.778Z,64.90
2018-05-08T07:01:30.714Z,64.30
2018-05-08T07:03:31.657Z,63.60
2018-05-08T07:05:32.623Z,63.00
2018-05-08T07:07:33.582Z,63.50
2018-05-08T07:09:34.529Z,63.50
2018-05-08T07:11:35.474Z,63.30
2018-05-08T07:13:36.410Z,64.20
2018-05-08T07:15:37.439Z,63.60
2018-05-08T07:17:38.333Z,62.80
2018-05-08T07:19:39.943Z,63.50
2018-05-08T07:21:40.886Z,62.90
2018-05-08T07:23:42.185Z,61.40
2018-05-08T07:25:44.137Z,61.40
2018-05-08T07:27:45.110Z,61.50
2018-05-08T07:29:46.094Z,60.30
2018-05-08T07:31:47.085Z,60.40
2018-05-08T07:33:48.027Z,60.60
2018-05-08T07:35:49.330Z,59.40
2018-05-08T07:37:51.243Z,59.40
2018-05-08T07:39:52.209Z,59.40
2018-05-08T07:41:53.187Z,58.30
2018-05-08T07:43:54.231Z,59.60
2018-05-08T07:45:55.598Z,57.70
2018-05-08T07:47:56.543Z,57.70
2018-05-08T07:49:57.570Z,58.30
2018-05-08T07:51:58.520Z,57.50
2018-05-08T07:53:59.477Z,57.20
2018-05-08T07:56:00.692Z,57.40
2018-05-08T07:58:01.648Z,56.70
2018-05-08T08:00:02.696Z,55.40
2018-05-08T08:02:03.786Z,56.30
2018-05-08T08:04:04.729Z,56.40
2018-05-08T08:06:05.678Z,54.80
2018-05-08T08:08:06.627Z,55.20
2018-05-08T08:10:07.574Z,54.60
2018-05-08T08:12:08.527Z,54.10
2018-05-08T08:14:09.863Z,54.20
2018-05-08T08:16:10.810Z,54.20
2018-05-08T08:18:11.754Z,52.40
2018-05-08T08:20:12.693Z,53.20
2018-05-08T08:22:13.650Z,52.10
2018-05-08T08:24:14.867Z,52.40
2018-05-08T08:26:15.794Z,53.00
2018-05-08T08:28:17.138Z,52.30
2018-05-08T08:30:18.505Z,51.50
2018-05-08T08:32:19.477Z,51.50
2018-05-08T08:34:20.461Z,51.80
2018-05-08T08:36:21.445Z,50.70
2018-05-08T08:38:22.622Z,50.80
2018-05-08T08:40:23.969Z,50.60
2018-05-08T08:42:25.425Z,50.30
2018-05-08T08:44:26.425Z,50.30
2018-05-08T08:46:27.487Z,51.20
2018-05-08T08:48:28.403Z,50.40
2018-05-08T08:50:29.774Z,51.00
2018-05-08T08:52:30.768Z,51.10
2018-05-08T08:54:31.717Z,51.40
2018-05-08T08:56:32.654Z,50.50
2018-05-08T08:58:33.966Z,50.10
2018-05-08T09:00:34.890Z,50.10
2018-05-08T09:02:35.842Z,50.90
2018-05-08T09:04:36.769Z,49.70
2018-05-08T09:06:37.711Z,49.80
2018-05-08T09:08:38.667Z,48.00
2018-05-08T09:10:40.180Z,46.70
2018-05-08T09:12:41.384Z,46.70
2018-05-08T09:14:42.406Z,47.40
2018-05-08T09:16:43.390Z,47.90
2018-05-08T09:18:44.334Z,47.90
2018-05-08T09:20:45.273Z,47.60
2018-05-08T09:22:46.199Z,47.90
2018-05-08T09:24:47.134Z,47.70
2018-05-08T09:26:48.078Z,47.50
2018-05-08T09:28:49.005Z,46.30
2018-05-08T09:30:49.946Z,45.70
2018-05-08T09:32:50.960Z,45.80
2018-05-08T09:34:52.190Z,47.40
2018-05-08T09:36:53.118Z,47.40
2018-05-08T09:38:54.057Z,46.80
2018-05-08T09:40:55.002Z,45.20
2018-05-08T09:42:56.612Z,44.50
2018-05-08T09:44:57.562Z,45.20
2018-05-08T09:46:58.495Z,45.50
2018-05-08T09:48:59.442Z,45.90
2018-05-08T09:51:00.399Z,46.40
2018-05-08T09:53:01.330Z,47.00
2018-05-08T09:55:02.258Z,45.70
2018-05-08T09:57:03.306Z,45.10
2018-05-08T09:59:04.242Z,44.60
2018-05-08T10:01:05.268Z,44.60
2018-05-08T10:03:06.507Z,44.70
2018-05-08T10:05:07.458Z,44.70
2018-05-08T10:07:08.383Z,45.30
2018-05-08T10:09:09.327Z,44.20
2018-05-08T10:11:10.261Z,44.50
2018-05-08T10:13:11.196Z,44.70
2018-05-08T10:15:12.399Z,44.00
2018-05-08T10:17:13.334Z,44.40
2018-05-08T10:19:14.278Z,44.80
2018-05-08T10:21:15.225Z,44.20
2018-05-08T10:23:16.158Z,44.60
2018-05-08T10:25:17.088Z,44.20
2018-05-08T10:27:18.322Z,43.70
2018-05-08T10:29:20.148Z,43.90
2018-05-08T10:31:21.078Z,43.70
2018-05-08T10:33:22.038Z,43.20
2018-05-08T10:35:22.974Z,43.70
2018-05-08T10:37:24.597Z,43.70
2018-05-08T10:39:25.874Z,44.00
2018-05-08T10:41:26.859Z,43.00
2018-05-08T10:43:27.849Z,42.60
2018-05-08T10:45:28.837Z,43.00
2018-05-08T10:47:29.770Z,42.60
2018-05-08T10:49:30.961Z,43.40
2018-05-08T10:51:32.302Z,43.90
2018-05-08T10:53:33.279Z,43.80
2018-05-08T10:55:34.255Z,43.20
2018-05-08T10:57:35.258Z,43.10
2018-05-08T10:59:36.261Z,43.10
2018-05-08T11:01:37.225Z,41.60
2018-05-08T11:03:38.534Z,42.50
2018-05-08T11:05:39.485Z,42.50
2018-05-08T11:07:40.810Z,42.60
2018-05-08T11:09:41.966Z,42.60
2018-05-08T11:11:43.327Z,41.00
2018-05-08T11:13:44.286Z,41.00
2018-05-08T11:15:45.268Z,41.30
2018-05-08T11:17:46.633Z,40.20
2018-05-08T11:19:47.690Z,40.20
2018-05-08T11:21:48.617Z,40.50
2018-05-08T11:23:49.605Z,41.00
2018-05-08T11:25:50.567Z,40.40
2018-05-08T11:27:51.675Z,40.40
2018-05-08T11:29:52.626Z,39.40
2018-05-08T11:31:53.927Z,39.10
2018-05-08T11:33:57.054Z,39.10
2018-05-08T11:35:58.414Z,38.60
2018-05-08T11:37:59.352Z,38.50
2018-05-08T11:40:00.314Z,38.00
2018-05-08T11:42:01.281Z,38.20
2018-05-08T11:44:02.225Z,38.50
2018-05-08T11:46:10.349Z,37.10
2018-05-08T11:48:11.278Z,37.40
2018-05-08T11:50:12.586Z,36.70
2018-05-08T11:52:13.828Z,36.70
2018-05-08T11:54:14.949Z,36.70
2018-05-08T11:56:15.895Z,37.20
2018-05-08T11:58:16.855Z,37.70
2018-05-08T12:00:18.157Z,37.20
2018-05-08T12:02:19.132Z,37.20
2018-05-08T12:04:20.463Z,35.40
2018-05-08T12:06:21.399Z,35.40
2018-05-08T12:08:22.341Z,35.00
2018-05-08T12:10:23.830Z,35.70
2018-05-08T12:12:24.777Z,35.70
2018-05-08T12:14:25.722Z,35.30
2018-05-08T12:16:26.667Z,35.00
2018-05-08T12:18:27.602Z,35.40
2018-05-08T12:20:28.602Z,35.90
2018-05-08T12:22:29.548Z,35.60
2018-05-08T12:24:30.481Z,34.60
2018-05-08T12:26:31.434Z,34.80
2018-05-08T12:28:32.745Z,35.10
2018-05-08T12:30:33.714Z,35.60
2018-05-08T12:32:36.259Z,35.80
2018-05-08T12:34:37.198Z,34.80
2018-05-08T12:36:38.148Z,34.50
2018-05-08T12:38:39.206Z,35.10
2018-05-08T12:40:40.655Z,34.80
2018-05-08T12:42:41.982Z,34.00
2018-05-08T12:44:42.946Z,34.00
2018-05-08T12:46:44.846Z,32.20
2018-05-08T12:48:45.780Z,32.10
2018-05-08T12:50:46.723Z,32.20
2018-05-08T12:52:47.688Z,32.80
2018-05-08T12:54:48.662Z,33.40
2018-05-08T12:56:49.602Z,32.70
2018-05-08T12:58:50.562Z,33.30
2018-05-08T13:00:51.573Z,33.00
2018-05-08T13:02:52.523Z,32.00
2018-05-08T13:04:53.471Z,31.70
2018-05-08T13:06:54.455Z,32.40
2018-05-08T13:08:55.762Z,32.50
2018-05-08T13:10:56.712Z,32.40
2018-05-08T13:12:58.046Z,32.50
2018-05-08T13:14:58.995Z,32.50
2018-05-08T13:16:59.950Z,31.70
2018-05-08T13:19:00.890Z,31.80
2018-05-08T13:21:11.163Z,31.50
2018-05-08T13:23:12.353Z,31.00
2018-05-08T13:25:13.669Z,30.00
2018-05-08T13:27:14.630Z,30.00
2018-05-08T13:29:15.957Z,29.40
2018-05-08T13:31:16.887Z,29.40
2018-05-08T13:33:17.847Z,30.00
2018-05-08T13:35:19.173Z,30.60
2018-05-08T13:37:20.500Z,31.80
2018-05-08T13:39:22.455Z,31.80
2018-05-08T13:41:23.399Z,31.40
2018-05-08T13:43:24.355Z,30.40
2018-05-08T13:45:25.679Z,31.90
2018-05-08T13:47:26.622Z,32.00
2018-05-08T13:49:28.137Z,30.40
2018-05-08T13:51:29.477Z,30.40
2018-05-08T13:53:30.436Z,29.90
2018-05-08T13:55:31.496Z,30.50
2018-05-08T13:57:32.442Z,29.80
2018-05-08T13:59:33.398Z,28.60
2018-05-08T14:01:34.346Z,29.00
2018-05-08T14:03:35.305Z,29.30
2018-05-08T14:05:36.310Z,29.80
2018-05-08T14:07:37.259Z,30.40
2018-05-08T14:09:38.219Z,30.50
2018-05-08T14:11:39.653Z,30.60
2018-05-08T14:13:40.674Z,30.60
2018-05-08T14:15:41.625Z,30.40
2018-05-08T14:17:43.366Z,29.30
2018-05-08T14:19:44.822Z,29.10
2018-05-08T14:21:45.758Z,30.10
2018-05-08T14:23:46.716Z,31.20
2018-05-08T14:25:47.667Z,31.00
2018-05-08T14:27:48.618Z,30.10
2018-05-08T14:29:49.579Z,29.30
2018-05-08T14:31:50.554Z,30.50
2018-05-08T14:33:51.883Z,30.70
2018-05-08T14:35:53.206Z,30.40
2018-05-08T14:37:54.272Z,30.40
2018-05-08T14:39:55.497Z,30.20
2018-05-08T14:41:56.482Z,30.20
2018-05-08T14:43:59.102Z,30.80
2018-05-08T14:46:00.043Z,31.10
2018-05-08T14:48:01.359Z,30.10
2018-05-08T14:50:02.706Z,30.70
2018-05-08T14:52:04.602Z,30.30
2018-05-08T14:56:08.255Z,31.90
2018-05-08T14:58:09.218Z,32.90
2018-05-08T15:00:10.158Z,33.50
2018-05-08T15:02:11.478Z,33.10
2018-05-08T15:04:12.449Z,33.40
2018-05-08T15:06:13.382Z,34.20
2018-05-08T15:08:14.909Z,34.30
2018-05-08T15:10:16.043Z,34.30
2018-05-08T15:12:17.045Z,35.50
2018-05-08T15:14:18.059Z,35.90
2018-05-08T15:16:19.030Z,36.30
2018-05-08T15:18:20.013Z,36.80
2018-05-08T15:20:21.371Z,37.40
2018-05-08T15:22:22.670Z,37.40
2018-05-08T15:24:23.708Z,37.90
2018-05-08T15:26:24.686Z,37.30
2018-05-08T15:28:25.934Z,37.60
2018-05-08T15:30:26.934Z,37.70
2018-05-08T15:32:35.473Z,38.40
2018-05-08T15:34:36.604Z,38.40
2018-05-08T15:36:38.015Z,39.20
2018-05-08T15:38:39.079Z,39.20
2018-05-08T15:40:40.479Z,39.20
2018-05-08T15:42:41.488Z,39.20
2018-05-08T15:44:42.909Z,38.90
2018-05-08T15:46:44.106Z,38.90
2018-05-08T15:48:45.126Z,38.90
2018-05-08T15:50:46.147Z,39.00
2018-05-08T15:52:47.219Z,39.00
2018-05-08T15:54:48.163Z,39.20
2018-05-08T15:56:49.122Z,38.30
2018-05-08T15:58:50.068Z,38.60
2018-05-08T16:00:51.026Z,38.80
2018-05-08T16:02:51.978Z,39.40
2018-05-08T16:04:52.921Z,39.60
2018-05-08T16:06:53.878Z,39.30
2018-05-08T16:08:55.482Z,39.50
2018-05-08T16:10:56.414Z,39.50
2018-05-08T16:12:57.393Z,39.90
2018-05-08T16:14:58.710Z,40.20
2018-05-08T16:17:00.612Z,40.20
2018-05-08T16:19:01.773Z,40.70
2018-05-08T16:21:02.829Z,40.40
2018-05-08T16:23:03.678Z,40.70
2018-05-08T16:25:04.690Z,40.50
2018-05-08T16:27:05.634Z,40.70
2018-05-08T16:29:06.771Z,40.90
2018-05-08T16:31:07.705Z,41.50
2018-05-08T16:33:08.712Z,41.10
2018-05-08T16:35:09.674Z,40.80
2018-05-08T16:37:10.619Z,41.00
2018-05-08T16:39:11.562Z,41.00
2018-05-08T16:41:12.621Z,40.60
2018-05-08T16:43:13.958Z,41.00
2018-05-08T16:45:15.326Z,40.40
2018-05-08T16:47:16.282Z,40.40
2018-05-08T16:49:17.243Z,40.90
2018-05-08T16:51:18.219Z,40.60
2018-05-08T16:53:19.545Z,41.20
2018-05-08T16:55:20.481Z,41.20
2018-05-08T16:57:21.799Z,40.60
2018-05-08T16:59:22.770Z,40.60
2018-05-08T17:01:24.097Z,39.80
2018-05-08T17:03:25.045Z,39.80
2018-05-08T17:05:27.470Z,40.30
2018-05-08T17:07:28.418Z,40.30
2018-05-08T17:09:32.514Z,40.40
2018-05-08T17:11:33.505Z,40.30
2018-05-08T17:13:34.528Z,40.10
2018-05-08T17:15:35.895Z,40.50
2018-05-08T17:17:37.038Z,40.50
2018-05-08T17:19:37.978Z,40.90
2018-05-08T17:21:38.991Z,41.00
2018-05-08T17:23:41.144Z,40.70
2018-05-08T17:25:42.248Z,40.70
2018-05-08T17:27:43.179Z,40.60
2018-05-08T17:29:44.178Z,40.70
2018-05-08T17:31:45.338Z,41.00
2018-05-08T17:33:46.305Z,41.10
2018-05-08T17:35:47.283Z,41.00
2018-05-08T17:37:48.296Z,41.40
2018-05-08T17:39:49.634Z,41.40
2018-05-08T17:41:51.046Z,41.00
2018-05-08T17:43:52.039Z,41.00
2018-05-08T17:45:53.295Z,41.20
2018-05-08T17:47:54.291Z,41.50
2018-05-08T17:49:55.659Z,41.50
2018-05-08T17:51:56.664Z,41.50
2018-05-08T17:53:58.030Z,41.70
2018-05-08T17:55:59.033Z,41.70
2018-05-08T17:58:00.008Z,42.10
2018-05-08T18:00:00.982Z,41.50
2018-05-08T18:02:01.992Z,42.00
2018-05-08T18:04:03.070Z,41.90
2018-05-08T18:06:04.366Z,41.90
2018-05-08T18:08:05.358Z,41.90
2018-05-08T18:10:06.702Z,42.20
2018-05-08T18:12:08.050Z,42.30
2018-05-08T18:14:09.058Z,42.30
2018-05-08T18:16:10.039Z,42.30
2018-05-08T18:18:11.018Z,42.50
2018-05-08T18:20:12.023Z,42.70
2018-05-08T18:22:13.030Z,42.50
2018-05-08T18:24:14.362Z,42.50
2018-05-08T18:26:15.713Z,43.00
2018-05-08T18:28:16.690Z,43.00
2018-05-08T18:30:17.670Z,43.40
2018-05-08T18:32:18.667Z,43.50
2018-05-08T18:34:19.675Z,43.60
2018-05-08T18:36:20.581Z,43.60
2018-05-08T18:38:21.943Z,43.90
2018-05-08T18:40:22.934Z,43.90
2018-05-08T18:42:23.946Z,43.80
2018-05-08T18:44:24.940Z,43.70
2018-05-08T18:46:25.909Z,44.00
2018-05-08T18:48:26.877Z,44.00
2018-05-08T18:50:27.868Z,43.80
2018-05-08T18:52:28.859Z,44.00
2018-05-08T18:54:29.847Z,43.90
2018-05-08T18:58:38.603Z,44.30
2018-05-08T19:00:45.710Z,44.10
2018-05-08T19:02:46.695Z,44.20
2018-05-08T19:04:47.658Z,44.10
2018-05-08T19:06:48.723Z,44.10
2018-05-08T19:08:49.642Z,44.50
2018-05-08T19:10:56.739Z,44.60
2018-05-08T19:12:57.733Z,44.70
2018-05-08T19:15:04.990Z,44.50
2018-05-08T19:17:06.086Z,44.50
2018-05-08T19:19:13.654Z,44.50
2018-05-08T19:21:14.806Z,44.50
2018-05-08T19:23:16.163Z,44.90
2018-05-08T19:25:17.527Z,45.00
2018-05-08T19:27:18.499Z,45.00
2018-05-08T19:29:25.522Z,45.10
2018-05-08T19:31:26.523Z,44.90
2018-05-08T19:33:27.507Z,44.90
2018-05-08T19:35:34.539Z,44.90
2018-05-08T19:37:41.677Z,45.10
2018-05-08T19:39:42.686Z,45.30
2018-05-08T19:41:43.646Z,45.10
2018-05-08T19:43:44.635Z,45.20
2018-05-08T19:45:46.106Z,45.30
2018-05-08T19:47:47.090Z,45.30
2018-05-08T19:49:48.066Z,45.60
2018-05-08T19:51:49.423Z,45.80
2018-05-08T19:53:50.406Z,45.80
2018-05-08T19:55:51.405Z,45.90
2018-05-08T19:57:52.440Z,46.20
2018-05-08T19:59:53.763Z,46.30
2018-05-08T20:01:54.729Z,46.30
2018-05-08T20:03:55.727Z,46.50
2018-05-08T20:05:57.090Z,46.60
2018-05-08T20:07:58.086Z,46.60
2018-05-08T20:09:59.450Z,47.10
2018-05-08T20:12:00.810Z,47.40
2018-05-08T20:14:01.784Z,47.40
2018-05-08T20:16:03.243Z,47.50
2018-05-08T20:20:11.966Z,48.70
2018-05-08T20:22:12.958Z,48.80
2018-05-08T20:24:13.938Z,49.10
2018-05-08T20:26:14.944Z,49.50
2018-05-08T20:30:23.814Z,50.50
2018-05-08T20:32:24.826Z,50.50
2018-05-08T20:34:26.086Z,50.40
2018-05-08T20:36:27.207Z,50.80
2018-05-08T20:38:28.074Z,50.90
2018-05-08T20:40:29.583Z,51.20
2018-05-08T20:42:30.546Z,51.20
2018-05-08T20:44:31.512Z,51.10
2018-05-08T20:46:32.510Z,51.20
2018-05-08T20:48:33.490Z,51.10
2018-05-08T20:50:34.527Z,51.20
2018-05-08T20:52:35.497Z,51.50
2018-05-08T20:54:36.527Z,51.40
2018-05-08T20:56:37.500Z,51.40
2018-05-08T20:58:38.857Z,51.30
2018-05-08T21:00:40.199Z,51.40
2018-05-08T21:02:41.554Z,51.40
2018-05-08T21:04:42.707Z,51.40
2018-05-08T21:06:43.702Z,51.80
2018-05-08T21:08:45.042Z,51.90
2018-05-08T21:10:46.044Z,51.90
2018-05-08T21:12:47.014Z,52.00
2018-05-08T21:14:48.371Z,52.80
2018-05-08T21:16:49.755Z,53.00
2018-05-08T21:18:50.734Z,53.00
2018-05-08T21:20:51.754Z,53.40
2018-05-08T21:22:52.730Z,54.10
2018-05-08T21:24:53.883Z,54.70
2018-05-08T21:26:54.867Z,55.20
2018-05-08T21:28:58.698Z,55.80
2018-05-08T21:31:06.130Z,56.90
2018-05-08T21:33:07.290Z,56.90
2018-05-08T21:35:08.251Z,57.10
2018-05-08T21:37:09.806Z,57.60
2018-05-08T21:39:11.284Z,57.70
2018-05-08T21:41:12.280Z,57.70
2018-05-08T21:43:13.642Z,58.40
2018-05-08T21:45:14.623Z,58.40
2018-05-08T21:47:15.601Z,58.60
2018-05-08T21:49:16.604Z,58.90
2018-05-08T21:51:17.589Z,59.10
2018-05-08T21:53:18.559Z,59.30
2018-05-08T21:55:19.590Z,59.40
2018-05-08T21:57:20.579Z,59.50
2018-05-08T21:59:21.565Z,59.60
2018-05-08T22:01:22.589Z,59.60
2018-05-08T22:03:23.590Z,59.90
2018-05-08T22:05:24.568Z,60.10
2018-05-08T22:07:25.578Z,60.30
2018-05-08T22:09:26.678Z,60.40
2018-05-08T22:11:28.066Z,60.50
2018-05-08T22:13:29.089Z,60.50
2018-05-08T22:15:30.143Z,60.90
2018-05-08T22:17:31.086Z,61.10
2018-05-08T22:19:32.090Z,61.40
2018-05-08T22:21:33.052Z,61.60
2018-05-08T22:23:34.009Z,61.80
2018-05-08T22:25:34.998Z,61.80
2018-05-08T22:27:35.998Z,62.10
2018-05-08T22:29:37.351Z,62.80
2018-05-08T22:31:38.342Z,62.80
2018-05-08T22:33:39.294Z,63.20
2018-05-08T22:35:40.262Z,63.50
2018-05-08T22:37:41.251Z,63.60
2018-05-08T22:39:42.273Z,63.60
2018-05-08T22:41:43.261Z,63.60
2018-05-08T22:43:44.626Z,64.70
2018-05-08T22:45:45.593Z,64.70
2018-05-08T22:47:46.554Z,65.10
2018-05-08T22:49:47.550Z,65.10
2018-05-08T22:51:48.539Z,65.10
2018-05-08T22:53:49.886Z,65.00
2018-05-08T22:55:52.937Z,65.30
2018-05-08T22:57:53.899Z,65.30
2018-05-08T22:59:55.263Z,65.30
2018-05-08T23:01:56.255Z,65.30
2018-05-08T23:03:57.275Z,65.70
2018-05-08T23:05:58.281Z,65.50
2018-05-08T23:07:59.254Z,65.30
2018-05-08T23:10:00.235Z,65.50
2018-05-08T23:12:01.227Z,65.80
2018-05-08T23:14:02.237Z,65.90
2018-05-08T23:16:03.214Z,65.80
2018-05-08T23:18:04.569Z,66.30
2018-05-08T23:20:06.055Z,66.10
2018-05-08T23:22:07.398Z,66.10
2018-05-08T23:24:08.354Z,66.30
2018-05-08T23:26:09.438Z,66.20
2018-05-08T23:28:10.455Z,66.30
2018-05-08T23:30:11.421Z,66.70
2018-05-08T23:32:12.398Z,67.00
2018-05-08T23:34:13.379Z,67.20
2018-05-08T23:36:14.366Z,67.30
2018-05-08T23:38:15.347Z,67.40
2018-05-08T23:40:16.331Z,67.40
2018-05-08T23:42:17.323Z,67.30
2018-05-08T23:44:18.318Z,67.30
2018-05-08T23:46:19.467Z,67.30
2018-05-08T23:48:20.830Z,67.20
2018-05-08T23:50:22.177Z,67.00
2018-05-08T23:52:23.551Z,67.20
2018-05-08T23:54:24.563Z,67.20
2018-05-08T23:56:25.526Z,67.70
2018-05-08T23:58:26.506Z,67.40
